sensor_id;sensor_type;location;lat;lon;timestamp;pressure;altitude;pressure_sealevel;temperature;humidity
62710;BME280;48770;51.624;5.886;2023-04-01T00:00:15;98968.22;;;20.17;40.74
62710;BME280;48770;51.624;5.886;2023-04-01T00:02:40;98975.75;;;20.16;40.57
62710;BME280;48770;51.624;5.886;2023-04-01T00:05:06;98984.88;;;20.17;40.68
62710;BME280;48770;51.624;5.886;2023-04-01T00:07:31;98980.53;;;20.16;40.72
62710;BME280;48770;51.624;5.886;2023-04-01T00:09:58;98984.09;;;20.16;40.60
62710;BME280;48770;51.624;5.886;2023-04-01T00:12:23;98981.31;;;20.16;40.68
62710;BME280;48770;51.624;5.886;2023-04-01T00:14:50;98982.50;;;20.15;40.79
62710;BME280;48770;51.624;5.886;2023-04-01T00:17:15;98986.06;;;20.16;40.84
62710;BME280;48770;51.624;5.886;2023-04-01T00:19:40;98978.94;;;20.15;40.82
62710;BME280;48770;51.624;5.886;2023-04-01T00:22:06;98987.25;;;20.15;40.62
62710;BME280;48770;51.624;5.886;2023-04-01T00:24:34;98976.16;;;20.15;40.63
62710;BME280;48770;51.624;5.886;2023-04-01T00:26:59;98987.25;;;20.15;40.61
62710;BME280;48770;51.624;5.886;2023-04-01T00:29:25;98990.03;;;20.15;40.64
62710;BME280;48770;51.624;5.886;2023-04-01T00:31:54;98996.78;;;20.14;40.84
62710;BME280;48770;51.624;5.886;2023-04-01T00:34:19;98988.44;;;20.14;40.57
62710;BME280;48770;51.624;5.886;2023-04-01T00:36:45;98995.97;;;20.13;40.80
62710;BME280;48770;51.624;5.886;2023-04-01T00:39:10;98996.78;;;20.14;40.59
62710;BME280;48770;51.624;5.886;2023-04-01T00:41:36;98990.81;;;20.12;40.58
62710;BME280;48770;51.624;5.886;2023-04-01T00:44:22;98990.03;;;20.11;40.67
62710;BME280;48770;51.624;5.886;2023-04-01T00:46:48;98984.47;;;20.11;40.80
62710;BME280;48770;51.624;5.886;2023-04-01T00:49:16;98988.06;;;20.12;40.71
62710;BME280;48770;51.624;5.886;2023-04-01T00:51:45;98993.59;;;20.12;40.77
62710;BME280;48770;51.624;5.886;2023-04-01T00:54:12;99003.91;;;20.11;40.91
62710;BME280;48770;51.624;5.886;2023-04-01T00:56:48;98997.56;;;20.11;40.60
62710;BME280;48770;51.624;5.886;2023-04-01T00:59:27;98996.78;;;20.10;40.64
62710;BME280;48770;51.624;5.886;2023-04-01T01:01:54;98993.59;;;20.08;40.82
62710;BME280;48770;51.624;5.886;2023-04-01T01:04:29;98998.75;;;20.10;40.81
62710;BME280;48770;51.624;5.886;2023-04-01T01:07:14;98998.75;;;20.06;40.74
62710;BME280;48770;51.624;5.886;2023-04-01T01:10:07;98999.53;;;20.07;40.60
62710;BME280;48770;51.624;5.886;2023-04-01T01:15:36;99008.25;;;20.05;40.94
62710;BME280;48770;51.624;5.886;2023-04-01T01:37:39;99029.59;;;20.01;40.64
62710;BME280;48770;51.624;5.886;2023-04-01T01:40:08;99027.63;;;20.01;40.89
62710;BME280;48770;51.624;5.886;2023-04-01T01:42:38;99018.13;;;20.02;40.84
62710;BME280;48770;51.624;5.886;2023-04-01T01:45:06;99019.72;;;20.03;40.71
62710;BME280;48770;51.624;5.886;2023-04-01T01:47:34;99022.47;;;20.03;40.76
62710;BME280;48770;51.624;5.886;2023-04-01T01:50:01;99028.03;;;20.03;40.72
62710;BME280;48770;51.624;5.886;2023-04-01T01:52:28;99023.31;;;20.04;40.56
62710;BME280;48770;51.624;5.886;2023-04-01T01:54:56;99028.84;;;20.04;40.69
62710;BME280;48770;51.624;5.886;2023-04-01T01:57:36;99032.00;;;20.02;40.72
62710;BME280;48770;51.624;5.886;2023-04-01T02:00:07;99032.00;;;20.02;40.50
62710;BME280;48770;51.624;5.886;2023-04-01T02:02:45;99032.00;;;20.02;40.52
62710;BME280;48770;51.624;5.886;2023-04-01T02:05:17;99037.53;;;20.02;40.68
62710;BME280;48770;51.624;5.886;2023-04-01T02:07:47;99036.75;;;20.02;40.82
62710;BME280;48770;51.624;5.886;2023-04-01T02:10:14;99039.53;;;20.02;40.86
62710;BME280;48770;51.624;5.886;2023-04-01T02:12:40;99043.09;;;20.02;40.46
62710;BME280;48770;51.624;5.886;2023-04-01T02:15:11;99041.50;;;20.01;40.58
62710;BME280;48770;51.624;5.886;2023-04-01T02:17:42;99042.28;;;20.02;40.66
62710;BME280;48770;51.624;5.886;2023-04-01T02:20:15;99052.59;;;20.01;40.56
62710;BME280;48770;51.624;5.886;2023-04-01T02:22:46;99044.66;;;20.00;40.97
62710;BME280;48770;51.624;5.886;2023-04-01T02:25:16;99049.81;;;20.01;40.65
62710;BME280;48770;51.624;5.886;2023-04-01T02:27:43;99049.03;;;20.01;40.53
62710;BME280;48770;51.624;5.886;2023-04-01T02:30:10;99047.06;;;20.01;40.71
62710;BME280;48770;51.624;5.886;2023-04-01T02:32:38;99047.06;;;20.01;40.63
62710;BME280;48770;51.624;5.886;2023-04-01T02:35:07;99056.16;;;20.02;40.68
62710;BME280;48770;51.624;5.886;2023-04-01T02:37:34;99059.34;;;20.00;40.62
62710;BME280;48770;51.624;5.886;2023-04-01T02:40:05;99062.91;;;20.01;40.58
62710;BME280;48770;51.624;5.886;2023-04-01T02:42:35;99048.63;;;19.99;40.83
62710;BME280;48770;51.624;5.886;2023-04-01T02:45:00;99052.19;;;19.99;40.78
62710;BME280;48770;51.624;5.886;2023-04-01T02:47:26;99061.31;;;20.00;40.71
62710;BME280;48770;51.624;5.886;2023-04-01T02:49:51;99063.69;;;19.98;41.03
62710;BME280;48770;51.624;5.886;2023-04-01T02:52:23;99065.66;;;19.97;40.65
62710;BME280;48770;51.624;5.886;2023-04-01T02:54:48;99070.81;;;19.99;40.84
62710;BME280;48770;51.624;5.886;2023-04-01T02:57:14;99074.78;;;19.98;40.63
62710;BME280;48770;51.624;5.886;2023-04-01T02:59:39;99069.22;;;19.98;40.72
62710;BME280;48770;51.624;5.886;2023-04-01T03:02:04;99078.75;;;19.97;40.86
62710;BME280;48770;51.624;5.886;2023-04-01T03:04:30;99080.31;;;19.98;40.73
62710;BME280;48770;51.624;5.886;2023-04-01T03:06:55;99079.53;;;19.97;40.86
62710;BME280;48770;51.624;5.886;2023-04-01T03:09:20;99077.94;;;19.96;40.73
62710;BME280;48770;51.624;5.886;2023-04-01T03:11:46;99082.69;;;19.96;40.56
62710;BME280;48770;51.624;5.886;2023-04-01T03:14:11;99081.50;;;19.97;40.74
62710;BME280;48770;51.624;5.886;2023-04-01T03:16:36;99082.69;;;19.96;40.66
62710;BME280;48770;51.624;5.886;2023-04-01T03:19:01;99084.69;;;19.95;40.83
62710;BME280;48770;51.624;5.886;2023-04-01T03:21:27;99091.81;;;19.96;40.61
62710;BME280;48770;51.624;5.886;2023-04-01T03:23:52;99091.03;;;19.96;40.92
62710;BME280;48770;51.624;5.886;2023-04-01T03:26:18;99090.22;;;19.95;40.59
62710;BME280;48770;51.624;5.886;2023-04-01T03:28:43;99093.00;;;19.95;40.86
62710;BME280;48770;51.624;5.886;2023-04-01T03:31:09;99089.44;;;19.95;40.53
62710;BME280;48770;51.624;5.886;2023-04-01T03:33:35;99087.44;;;19.95;40.82
62710;BME280;48770;51.624;5.886;2023-04-01T03:36:00;99093.00;;;19.95;40.67
62710;BME280;48770;51.624;5.886;2023-04-01T03:38:26;99084.69;;;19.95;40.62
62710;BME280;48770;51.624;5.886;2023-04-01T03:40:51;99095.78;;;19.95;40.75
62710;BME280;48770;51.624;5.886;2023-04-01T03:43:16;99096.16;;;19.94;40.67
62710;BME280;48770;51.624;5.886;2023-04-01T03:45:46;99096.97;;;19.94;40.63
62710;BME280;48770;51.624;5.886;2023-04-01T03:48:12;99093.38;;;19.94;40.73
62710;BME280;48770;51.624;5.886;2023-04-01T03:50:37;99090.63;;;19.94;40.20
62710;BME280;48770;51.624;5.886;2023-04-01T03:53:02;99102.91;;;19.93;40.54
62710;BME280;48770;51.624;5.886;2023-04-01T03:55:28;99099.72;;;19.94;40.69
62710;BME280;48770;51.624;5.886;2023-04-01T03:57:53;99098.13;;;19.93;40.65
62710;BME280;48770;51.624;5.886;2023-04-01T04:00:19;99098.94;;;19.94;40.74
62710;BME280;48770;51.624;5.886;2023-04-01T04:02:44;99098.13;;;19.93;40.39
62710;BME280;48770;51.624;5.886;2023-04-01T04:05:10;99101.72;;;19.94;40.53
62710;BME280;48770;51.624;5.886;2023-04-01T04:07:35;99100.13;;;19.93;40.86
62710;BME280;48770;51.624;5.886;2023-04-01T04:10:01;99100.13;;;19.93;40.62
62710;BME280;48770;51.624;5.886;2023-04-01T04:12:26;99104.88;;;19.92;40.58
62710;BME280;48770;51.624;5.886;2023-04-01T04:14:51;99099.31;;;19.92;40.67
62710;BME280;48770;51.624;5.886;2023-04-01T04:17:17;99114.38;;;19.91;40.54
62710;BME280;48770;51.624;5.886;2023-04-01T04:19:42;99099.72;;;19.91;40.63
62710;BME280;48770;51.624;5.886;2023-04-01T04:22:08;99104.09;;;19.92;40.70
62710;BME280;48770;51.624;5.886;2023-04-01T04:24:36;99110.41;;;19.92;40.57
62710;BME280;48770;51.624;5.886;2023-04-01T04:27:03;99113.19;;;19.92;40.50
62710;BME280;48770;51.624;5.886;2023-04-01T04:29:29;99115.97;;;19.92;40.79
62710;BME280;48770;51.624;5.886;2023-04-01T04:31:54;99115.19;;;19.92;40.63
62710;BME280;48770;51.624;5.886;2023-04-01T04:34:19;99112.78;;;19.90;40.59
62710;BME280;48770;51.624;5.886;2023-04-01T04:36:45;99120.72;;;19.92;40.36
62710;BME280;48770;51.624;5.886;2023-04-01T04:39:11;99122.69;;;19.91;40.71
62710;BME280;48770;51.624;5.886;2023-04-01T04:41:37;99125.47;;;19.91;40.54
62710;BME280;48770;51.624;5.886;2023-04-01T04:44:03;99123.88;;;19.90;40.69
62710;BME280;48770;51.624;5.886;2023-04-01T04:46:28;99135.78;;;19.91;40.71
62710;BME280;48770;51.624;5.886;2023-04-01T04:48:54;99128.63;;;19.90;40.54
62710;BME280;48770;51.624;5.886;2023-04-01T04:51:20;99132.22;;;19.90;40.70
62710;BME280;48770;51.624;5.886;2023-04-01T04:53:45;99134.19;;;19.90;40.65
62710;BME280;48770;51.624;5.886;2023-04-01T04:56:11;99139.72;;;19.90;40.72
62710;BME280;48770;51.624;5.886;2023-04-01T04:58:37;99137.75;;;19.90;40.71
62710;BME280;48770;51.624;5.886;2023-04-01T05:01:09;99141.72;;;19.89;40.77
62710;BME280;48770;51.624;5.886;2023-04-01T05:03:35;99145.66;;;19.88;40.53
62710;BME280;48770;51.624;5.886;2023-04-01T05:06:01;99149.25;;;19.89;40.45
62710;BME280;48770;51.624;5.886;2023-04-01T05:08:26;99142.91;;;19.88;40.83
62710;BME280;48770;51.624;5.886;2023-04-01T05:10:51;99136.56;;;19.88;40.96
62710;BME280;48770;51.624;5.886;2023-04-01T05:13:16;99148.44;;;19.88;40.88
62710;BME280;48770;51.624;5.886;2023-04-01T05:15:42;99148.44;;;19.88;40.53
62710;BME280;48770;51.624;5.886;2023-04-01T05:18:07;99157.94;;;19.87;40.60
62710;BME280;48770;51.624;5.886;2023-04-01T05:20:32;99167.84;;;19.88;40.64
62710;BME280;48770;51.624;5.886;2023-04-01T05:22:58;99165.47;;;19.87;40.64
62710;BME280;48770;51.624;5.886;2023-04-01T05:25:24;99163.50;;;19.87;40.67
62710;BME280;48770;51.624;5.886;2023-04-01T05:27:50;99169.84;;;19.88;40.65
62710;BME280;48770;51.624;5.886;2023-04-01T05:30:15;99164.28;;;19.88;40.49
62710;BME280;48770;51.624;5.886;2023-04-01T05:32:41;99168.25;;;19.87;40.76
62710;BME280;48770;51.624;5.886;2023-04-01T05:35:06;99168.25;;;19.87;40.89
62710;BME280;48770;51.624;5.886;2023-04-01T05:37:34;99174.59;;;19.87;40.54
62710;BME280;48770;51.624;5.886;2023-04-01T05:39:59;99182.13;;;19.87;40.71
62710;BME280;48770;51.624;5.886;2023-04-01T05:42:25;99180.53;;;19.86;40.56
62710;BME280;48770;51.624;5.886;2023-04-01T05:44:50;99180.53;;;19.86;40.80
62710;BME280;48770;51.624;5.886;2023-04-01T05:47:15;99187.25;;;19.85;40.47
62710;BME280;48770;51.624;5.886;2023-04-01T05:49:41;99192.81;;;19.85;40.64
62710;BME280;48770;51.624;5.886;2023-04-01T05:52:06;99190.81;;;19.85;40.79
62710;BME280;48770;51.624;5.886;2023-04-01T05:54:31;99190.03;;;19.85;40.67
62710;BME280;48770;51.624;5.886;2023-04-01T05:56:57;99195.56;;;19.85;41.23
62710;BME280;48770;51.624;5.886;2023-04-01T05:59:22;99194.78;;;19.84;40.54
62710;BME280;48770;51.624;5.886;2023-04-01T06:01:47;99199.16;;;19.85;40.67
62710;BME280;48770;51.624;5.886;2023-04-01T06:04:14;99203.91;;;19.85;40.65
62710;BME280;48770;51.624;5.886;2023-04-01T06:06:41;99204.69;;;19.85;40.53
62710;BME280;48770;51.624;5.886;2023-04-01T06:09:29;99209.03;;;19.83;40.65
62710;BME280;48770;51.624;5.886;2023-04-01T06:26:21;99231.56;;;19.78;40.52
62710;BME280;48770;51.624;5.886;2023-04-01T06:29:17;99235.50;;;19.77;40.66
62710;BME280;48770;51.624;5.886;2023-04-01T06:39:59;99260.09;;;19.78;40.62
62710;BME280;48770;51.624;5.886;2023-04-01T06:54:03;99270.75;;;19.76;40.92
62710;BME280;48770;51.624;5.886;2023-04-01T06:56:30;99270.38;;;19.78;40.78
62710;BME280;48770;51.624;5.886;2023-04-01T06:59:00;99278.34;;;19.79;40.76
62710;BME280;48770;51.624;5.886;2023-04-01T07:01:35;99284.69;;;19.80;40.88
62710;BME280;48770;51.624;5.886;2023-04-01T07:04:06;99291.03;;;19.80;40.61
62710;BME280;48770;51.624;5.886;2023-04-01T07:06:50;99295.78;;;19.80;40.83
62710;BME280;48770;51.624;5.886;2023-04-01T07:09:20;99298.56;;;19.80;40.84
62710;BME280;48770;51.624;5.886;2023-04-01T07:11:47;99292.63;;;19.81;40.72
62710;BME280;48770;51.624;5.886;2023-04-01T07:14:19;99292.63;;;19.81;40.81
62710;BME280;48770;51.624;5.886;2023-04-01T07:16:49;99297.78;;;19.83;40.46
62710;BME280;48770;51.624;5.886;2023-04-01T07:19:32;99300.94;;;19.81;40.53
62710;BME280;48770;51.624;5.886;2023-04-01T07:22:04;99304.50;;;19.82;40.76
62710;BME280;48770;51.624;5.886;2023-04-01T07:24:36;99309.69;;;19.83;40.69
62710;BME280;48770;51.624;5.886;2023-04-01T07:27:05;99311.66;;;19.83;40.64
62710;BME280;48770;51.624;5.886;2023-04-01T07:29:33;99318.00;;;19.83;40.88
62710;BME280;48770;51.624;5.886;2023-04-01T07:43:06;99337.00;;;19.81;40.66
62710;BME280;48770;51.624;5.886;2023-04-01T07:49:10;99342.97;;;19.83;40.62
62710;BME280;48770;51.624;5.886;2023-04-01T07:54:00;99359.19;;;19.81;40.76
62710;BME280;48770;51.624;5.886;2023-04-01T07:56:42;99348.88;;;19.82;40.53
62710;BME280;48770;51.624;5.886;2023-04-01T07:59:41;99358.38;;;19.81;40.64
62710;BME280;48770;51.624;5.886;2023-04-01T08:05:22;99367.88;;;19.80;40.75
62710;BME280;48770;51.624;5.886;2023-04-01T08:10:51;99375.81;;;19.81;40.62
62710;BME280;48770;51.624;5.886;2023-04-01T08:16:27;99377.84;;;19.84;40.59
62710;BME280;48770;51.624;5.886;2023-04-01T08:19:15;99392.09;;;19.83;40.62
62710;BME280;48770;51.624;5.886;2023-04-01T08:21:47;99391.72;;;19.84;40.82
62710;BME280;48770;51.624;5.886;2023-04-01T08:24:33;99390.13;;;19.83;40.76
62710;BME280;48770;51.624;5.886;2023-04-01T08:27:03;99392.50;;;19.85;40.43
62710;BME280;48770;51.624;5.886;2023-04-01T08:29:49;99397.66;;;19.86;40.71
62710;BME280;48770;51.624;5.886;2023-04-01T08:32:20;99409.94;;;19.85;40.64
62710;BME280;48770;51.624;5.886;2023-04-01T08:34:55;99415.09;;;19.87;40.71
62710;BME280;48770;51.624;5.886;2023-04-01T08:37:28;99418.69;;;19.87;40.63
62710;BME280;48770;51.624;5.886;2023-04-01T08:45:42;99428.03;;;19.76;40.84
62710;BME280;48770;51.624;5.886;2023-04-01T08:54:17;99437.22;;;19.80;40.77
62710;BME280;48770;51.624;5.886;2023-04-01T08:57:03;99446.34;;;19.80;40.79
62710;BME280;48770;51.624;5.886;2023-04-01T09:07:46;99458.66;;;19.83;40.85
62710;BME280;48770;51.624;5.886;2023-04-01T09:13:04;99467.78;;;19.83;40.80
62710;BME280;48770;51.624;5.886;2023-04-01T09:16:00;99471.34;;;19.84;40.54
62710;BME280;48770;51.624;5.886;2023-04-01T09:26:51;99489.16;;;19.83;40.79
62710;BME280;48770;51.624;5.886;2023-04-01T09:29:38;99483.25;;;19.84;40.78
62710;BME280;48770;51.624;5.886;2023-04-01T09:35:20;99492.75;;;19.83;40.57
62710;BME280;48770;51.624;5.886;2023-04-01T10:02:15;99520.91;;;19.85;40.70
62710;BME280;48770;51.624;5.886;2023-04-01T10:05:12;99522.50;;;19.86;40.87
62710;BME280;48770;51.624;5.886;2023-04-01T10:16:25;99528.84;;;19.87;40.75
62710;BME280;48770;51.624;5.886;2023-04-01T10:22:47;99538.72;;;19.84;40.93
62710;BME280;48770;51.624;5.886;2023-04-01T10:25:22;99546.66;;;19.86;40.56
62710;BME280;48770;51.624;5.886;2023-04-01T10:28:33;99552.63;;;19.88;40.77
62710;BME280;48770;51.624;5.886;2023-04-01T10:31:17;99550.66;;;19.88;40.79
62710;BME280;48770;51.624;5.886;2023-04-01T10:40:23;99559.72;;;19.85;40.84
62710;BME280;48770;51.624;5.886;2023-04-01T10:43:06;99558.97;;;19.88;40.75
62710;BME280;48770;51.624;5.886;2023-04-01T10:48:29;99570.50;;;19.90;40.61
62710;BME280;48770;51.624;5.886;2023-04-01T10:51:14;99576.47;;;19.92;40.47
62710;BME280;48770;51.624;5.886;2023-04-01T10:56:47;99570.91;;;19.92;40.81
62710;BME280;48770;51.624;5.886;2023-04-01T10:59:42;99573.25;;;19.90;40.67
62710;BME280;48770;51.624;5.886;2023-04-01T11:27:37;99607.78;;;19.93;40.56
62710;BME280;48770;51.624;5.886;2023-04-01T11:32:53;99609.00;;;19.95;40.66
62710;BME280;48770;51.624;5.886;2023-04-01T11:38:34;99608.56;;;19.93;40.53
62710;BME280;48770;51.624;5.886;2023-04-01T11:43:47;99622.88;;;19.95;40.66
62710;BME280;48770;51.624;5.886;2023-04-01T11:46:23;99622.47;;;19.97;40.63
62710;BME280;48770;51.624;5.886;2023-04-01T12:02:26;99638.72;;;19.95;40.63
62710;BME280;48770;51.624;5.886;2023-04-01T12:10:26;99651.03;;;19.97;40.57
62710;BME280;48770;51.624;5.886;2023-04-01T12:13:04;99653.44;;;19.99;40.72
62710;BME280;48770;51.624;5.886;2023-04-01T12:18:35;99666.50;;;19.98;40.66
62710;BME280;48770;51.624;5.886;2023-04-01T12:32:45;99684.28;;;19.94;40.66
62710;BME280;48770;51.624;5.886;2023-04-01T12:35:21;99678.41;;;19.99;40.65
62710;BME280;48770;51.624;5.886;2023-04-01T12:46:18;99692.31;;;20.02;40.78
62710;BME280;48770;51.624;5.886;2023-04-01T12:51:45;99705.84;;;20.04;40.69
62710;BME280;48770;51.624;5.886;2023-04-01T12:57:05;99703.50;;;20.06;40.47
62710;BME280;48770;51.624;5.886;2023-04-01T13:00:02;99706.66;;;20.05;40.56
62710;BME280;48770;51.624;5.886;2023-04-01T13:05:33;99715.41;;;20.07;40.77
62710;BME280;48770;51.624;5.886;2023-04-01T13:08:22;99720.53;;;20.05;40.71
62710;BME280;48770;51.624;5.886;2023-04-01T13:13:28;99727.72;;;20.09;40.54
62710;BME280;48770;51.624;5.886;2023-04-01T13:18:31;99733.94;;;20.02;40.83
62710;BME280;48770;51.624;5.886;2023-04-01T13:21:20;99735.19;;;20.05;40.63
62710;BME280;48770;51.624;5.886;2023-04-01T13:31:43;99734.06;;;20.10;40.50
62710;BME280;48770;51.624;5.886;2023-04-01T13:37:48;99747.16;;;20.09;40.54
62710;BME280;48770;51.624;5.886;2023-04-01T13:40:18;99748.69;;;20.07;40.59
62710;BME280;48770;51.624;5.886;2023-04-01T13:42:57;99759.41;;;20.08;40.85
62710;BME280;48770;51.624;5.886;2023-04-01T13:45:38;99758.25;;;20.09;40.76
62710;BME280;48770;51.624;5.886;2023-04-01T13:48:25;99763.78;;;20.09;40.71
62710;BME280;48770;51.624;5.886;2023-04-01T13:51:12;99764.59;;;20.10;40.71
62710;BME280;48770;51.624;5.886;2023-04-01T13:59:29;99766.13;;;20.07;40.52
62710;BME280;48770;51.624;5.886;2023-04-01T14:05:09;99778.00;;;20.04;40.74
62710;BME280;48770;51.624;5.886;2023-04-01T14:08:00;99776.34;;;20.03;40.82
62710;BME280;48770;51.624;5.886;2023-04-01T14:10:35;99789.09;;;20.04;40.93
62710;BME280;48770;51.624;5.886;2023-04-01T14:21:50;99801.72;;;20.01;40.84
62710;BME280;48770;51.624;5.886;2023-04-01T14:27:20;99800.91;;;20.01;40.80
62710;BME280;48770;51.624;5.886;2023-04-01T14:44:10;99821.44;;;19.96;40.73
62710;BME280;48770;51.624;5.886;2023-04-01T14:50:03;99827.00;;;19.96;40.89
62710;BME280;48770;51.624;5.886;2023-04-01T14:52:33;99828.59;;;19.97;41.13
62710;BME280;48770;51.624;5.886;2023-04-01T14:55:01;99830.63;;;20.00;40.84
62710;BME280;48770;51.624;5.886;2023-04-01T14:57:30;99837.78;;;20.01;40.78
62710;BME280;48770;51.624;5.886;2023-04-01T15:02:57;99837.78;;;20.01;40.81
62710;BME280;48770;51.624;5.886;2023-04-01T15:05:44;99844.50;;;20.00;40.72
62710;BME280;48770;51.624;5.886;2023-04-01T15:11:28;99854.38;;;19.98;40.99
62710;BME280;48770;51.624;5.886;2023-04-01T15:14:18;99858.75;;;19.99;40.79
62710;BME280;48770;51.624;5.886;2023-04-01T15:17:14;99857.16;;;19.98;41.14
62710;BME280;48770;51.624;5.886;2023-04-01T15:31:04;99880.94;;;19.99;41.05
62710;BME280;48770;51.624;5.886;2023-04-01T15:34:57;99869.78;;;19.95;41.15
62710;BME280;48770;51.624;5.886;2023-04-01T15:36:57;99883.66;;;19.95;41.11
62710;BME280;48770;51.624;5.886;2023-04-01T15:44:55;99885.25;;;19.96;41.12
62710;BME280;48770;51.624;5.886;2023-04-01T15:47:34;99893.66;;;20.00;41.10
62710;BME280;48770;51.624;5.886;2023-04-01T15:50:24;99901.91;;;19.96;40.99
62710;BME280;48770;51.624;5.886;2023-04-01T15:53:09;99906.66;;;19.96;40.95
62710;BME280;48770;51.624;5.886;2023-04-01T15:55:55;99904.69;;;19.96;41.06
62710;BME280;48770;51.624;5.886;2023-04-01T16:07:24;99922.38;;;19.88;41.03
62710;BME280;48770;51.624;5.886;2023-04-01T16:12:28;99925.22;;;19.92;41.09
62710;BME280;48770;51.624;5.886;2023-04-01T16:17:53;99937.13;;;19.92;41.27
62710;BME280;48770;51.624;5.886;2023-04-01T16:20:25;99935.50;;;19.91;41.28
62710;BME280;48770;51.624;5.886;2023-04-01T16:23:03;99932.38;;;19.93;41.25
62710;BME280;48770;51.624;5.886;2023-04-01T16:25:40;99937.13;;;19.92;41.19
62710;BME280;48770;51.624;5.886;2023-04-01T16:28:20;99942.66;;;19.92;41.10
62710;BME280;48770;51.624;5.886;2023-04-01T16:30:55;99945.44;;;19.92;41.14
62710;BME280;48770;51.624;5.886;2023-04-01T16:33:39;99946.59;;;19.91;40.77
62710;BME280;48770;51.624;5.886;2023-04-01T16:38:51;99966.84;;;19.92;41.00
62710;BME280;48770;51.624;5.886;2023-04-01T16:41:29;99966.84;;;19.92;40.93
62710;BME280;48770;51.624;5.886;2023-04-01T16:44:08;99975.97;;;19.92;41.10
62710;BME280;48770;51.624;5.886;2023-04-01T16:46:41;99974.34;;;19.91;40.78
62710;BME280;48770;51.624;5.886;2023-04-01T16:51:53;99978.28;;;19.90;40.95
62710;BME280;48770;51.624;5.886;2023-04-01T16:56:54;99991.00;;;19.91;40.83
62710;BME280;48770;51.624;5.886;2023-04-01T16:59:34;100002.09;;;19.91;40.78
62710;BME280;48770;51.624;5.886;2023-04-01T17:04:41;100000.13;;;19.92;41.13
62710;BME280;48770;51.624;5.886;2023-04-01T17:15:33;100034.16;;;19.89;41.11
62710;BME280;48770;51.624;5.886;2023-04-01T17:20:50;100037.66;;;19.86;41.03
62710;BME280;48770;51.624;5.886;2023-04-01T17:26:32;100054.31;;;19.86;41.21
62710;BME280;48770;51.624;5.886;2023-04-01T17:31:57;100060.28;;;19.88;41.04
62710;BME280;48770;51.624;5.886;2023-04-01T17:34:51;100064.59;;;19.85;41.05
62710;BME280;48770;51.624;5.886;2023-04-01T17:45:55;100095.44;;;19.64;41.49
62710;BME280;48770;51.624;5.886;2023-04-01T17:48:49;100093.34;;;19.77;41.42
62710;BME280;48770;51.624;5.886;2023-04-01T17:54:21;100108.84;;;19.78;41.61
62710;BME280;48770;51.624;5.886;2023-04-01T17:59:37;100121.25;;;19.84;41.48
62710;BME280;48770;51.624;5.886;2023-04-01T18:04:43;100130.44;;;19.88;41.75
62710;BME280;48770;51.624;5.886;2023-04-01T18:07:15;100130.09;;;19.90;41.67
62710;BME280;48770;51.624;5.886;2023-04-01T18:12:56;100148.78;;;19.93;41.83
62710;BME280;48770;51.624;5.886;2023-04-01T18:15:35;100152.34;;;19.93;42.00
62710;BME280;48770;51.624;5.886;2023-04-01T18:18:32;100164.63;;;19.92;42.04
62710;BME280;48770;51.624;5.886;2023-04-01T18:24:19;100184.13;;;19.96;42.05
62710;BME280;48770;51.624;5.886;2023-04-01T18:29:42;100189.38;;;20.01;42.08
62710;BME280;48770;51.624;5.886;2023-04-01T18:37:29;100216.94;;;20.10;42.07
62710;BME280;48770;51.624;5.886;2023-04-01T18:45:57;100241.56;;;20.11;42.20
62710;BME280;48770;51.624;5.886;2023-04-01T18:48:40;100242.81;;;20.14;42.39
62710;BME280;48770;51.624;5.886;2023-04-01T18:51:35;100251.50;;;20.12;42.29
62710;BME280;48770;51.624;5.886;2023-04-01T18:54:30;100256.69;;;20.14;42.39
62710;BME280;48770;51.624;5.886;2023-04-01T18:57:16;100263.47;;;20.16;42.36
62710;BME280;48770;51.624;5.886;2023-04-01T18:59:49;100270.72;;;20.21;42.18
62710;BME280;48770;51.624;5.886;2023-04-01T19:05:35;100274.50;;;20.13;42.36
62710;BME280;48770;51.624;5.886;2023-04-01T19:08:13;100278.53;;;19.99;42.83
62710;BME280;48770;51.624;5.886;2023-04-01T19:19:38;100307.25;;;20.23;42.65
62710;BME280;48770;51.624;5.886;2023-04-01T19:22:27;100312.44;;;20.24;42.62
62710;BME280;48770;51.624;5.886;2023-04-01T19:27:52;100327.22;;;20.28;42.56
62710;BME280;48770;51.624;5.886;2023-04-01T19:35:42;100343.63;;;20.33;42.75
62710;BME280;48770;51.624;5.886;2023-04-01T19:38:39;100348.00;;;20.35;42.59
62710;BME280;48770;51.624;5.886;2023-04-01T19:47:00;100359.19;;;20.38;42.77
62710;BME280;48770;51.624;5.886;2023-04-01T19:49:52;100364.38;;;20.40;42.69
62710;BME280;48770;51.624;5.886;2023-04-01T19:52:36;100368.69;;;20.37;42.78
62710;BME280;48770;51.624;5.886;2023-04-01T20:00:51;100383.47;;;20.41;42.56
62710;BME280;48770;51.624;5.886;2023-04-01T20:06:17;100400.59;;;20.43;42.98
62710;BME280;48770;51.624;5.886;2023-04-01T20:14:47;100419.31;;;20.46;42.58
62710;BME280;48770;51.624;5.886;2023-04-01T20:17:38;100427.63;;;20.46;42.81
62710;BME280;48770;51.624;5.886;2023-04-01T20:25:23;100437.66;;;20.51;42.37
62710;BME280;48770;51.624;5.886;2023-04-01T20:27:55;100444.38;;;20.50;42.35
62710;BME280;48770;51.624;5.886;2023-04-01T20:36:06;100462.94;;;20.46;42.32
62710;BME280;48770;51.624;5.886;2023-04-01T20:41:49;100473.59;;;20.44;42.33
62710;BME280;48770;51.624;5.886;2023-04-01T20:44:36;100482.72;;;20.44;42.15
62710;BME280;48770;51.624;5.886;2023-04-01T20:47:44;100492.59;;;20.42;42.26
62710;BME280;48770;51.624;5.886;2023-04-01T20:52:50;100511.22;;;20.41;42.14
62710;BME280;48770;51.624;5.886;2023-04-01T20:58:21;100511.47;;;20.36;41.79
62710;BME280;48770;51.624;5.886;2023-04-01T21:01:08;100518.63;;;20.37;42.23
62710;BME280;48770;51.624;5.886;2023-04-01T21:14:42;100547.03;;;20.30;42.03
62710;BME280;48770;51.624;5.886;2023-04-01T21:17:15;100546.53;;;20.28;42.05
62710;BME280;48770;51.624;5.886;2023-04-01T21:22:45;100571.06;;;20.26;41.81
62710;BME280;48770;51.624;5.886;2023-04-01T21:31:00;100582.09;;;20.23;42.00
62710;BME280;48770;51.624;5.886;2023-04-01T21:33:42;100596.31;;;20.21;41.79